Weather at Monterrey Airport

Public forecast

Using degrees Celsius for public forecast. Weather courtesy of forecast.io.

Closest aviation weather report (METAR) to Monterrey Airport

Closest report is Carlos Rovirosa Pérez International Airport, 22.3 nm (41.3 km) NNE. Retrieved 2020/10/20 16:40 UTC (0 seconds ago):

MMVA 201640Z 00000KT 7SM BKN015 29/23 A2990 RMK 8/800

Closest aviation forecast (TAF) to Monterrey Airport

Forecast is more than 12 hours old.

Closest forecast is Carlos Rovirosa Pérez International Airport, 22.3 nm (41.3 km) NNE. Retrieved 2020/10/19 18:22 UTC (22 hours ago):

TAF MMVA 191714Z 1918/2018 04012KT P6SM SCT015 TEMPO 1922/2002 5SM RA BKN015CB FM200300 00000KT 5SM HZ BKN015 TEMPO 2012/2016 3SM DZ OVC010